Gate, Washington
Current Conditions -  °F | °C
As of 11:15 PM on Sunday 23 Nov 2014 (Local Time) from KCLS Reporting Station
Haze Haze  
Wind Chill: 40°   Ceiling: 400
Heat Index: 43°   Visibility: 1.5mi
Dew Point: 43°   Wind: 5mph
Humidity: 100%   Direction: 240°WSW
Pressure: 30.36"   Gusts: NA
Location:  46.7945°N, 123.146°W
Report Text: KCLS 240715Z AUTO 24004KT 1 1/2SM BR OVC004 06/06 A3036 RMK AO2
Loading
Personal Weather Stations






























Interactive Weather Map New forecast layout! Learn more

10-Day Weather Forecast

Advertisements
Track Severe Weather on mobile